createdAt,value
2023-05-13T00:01:05.110Z,95773.25
2023-05-13T00:03:32.401Z,95789.72
2023-05-13T00:06:00.480Z,95792.13
2023-05-13T00:08:27.007Z,95789.00
2023-05-13T00:10:53.463Z,95789.22
2023-05-13T00:13:19.982Z,95796.06
2023-05-13T00:15:46.412Z,95793.25
2023-05-13T00:18:12.869Z,95773.56
2023-05-13T00:20:40.973Z,95774.13
2023-05-13T00:23:07.866Z,95774.44
2023-05-13T00:25:34.792Z,95785.41
2023-05-13T00:28:01.215Z,95790.03
2023-05-13T00:30:27.935Z,95805.84
2023-05-13T00:32:54.444Z,95799.09
2023-05-13T00:35:21.051Z,95810.63
2023-05-13T00:37:47.490Z,95802.34
2023-05-13T00:40:22.152Z,95807.50
2023-05-13T00:42:49.683Z,95804.09
2023-05-13T00:45:16.568Z,95809.63
2023-05-13T00:47:43.736Z,95786.47
2023-05-13T00:50:11.390Z,95803.84
2023-05-13T00:52:39.945Z,95800.72
2023-05-13T00:55:07.643Z,95772.13
2023-05-13T00:57:35.134Z,95802.00
2023-05-13T01:00:03.524Z,95802.50
2023-05-13T01:02:52.802Z,95800.94
2023-05-13T01:05:30.908Z,95793.41
2023-05-13T01:08:06.708Z,95794.56
2023-05-13T01:11:08.186Z,95798.78
2023-05-13T01:13:43.023Z,95798.03
2023-05-13T01:16:21.414Z,95803.28
2023-05-13T01:18:56.623Z,95791.00
2023-05-13T01:21:29.248Z,95783.94
2023-05-13T01:23:56.140Z,95783.84
2023-05-13T01:26:24.158Z,95797.25
2023-05-13T01:28:50.995Z,95791.38
2023-05-13T01:31:19.104Z,95793.88
2023-05-13T01:33:46.818Z,95796.56
2023-05-13T01:36:14.921Z,95806.53
2023-05-13T01:38:42.741Z,95774.31
2023-05-13T01:41:09.336Z,95807.88
2023-05-13T01:43:36.527Z,95799.97
2023-05-13T01:46:03.220Z,95788.78
2023-05-13T01:48:29.726Z,95793.47
2023-05-13T01:50:57.926Z,95788.66
2023-05-13T01:53:24.405Z,95809.94
2023-05-13T01:55:52.850Z,95795.53
2023-05-13T01:58:20.726Z,95804.16
2023-05-13T02:00:47.224Z,95803.25
2023-05-13T02:03:13.723Z,95799.09
2023-05-13T02:05:40.376Z,95790.34
2023-05-13T02:08:08.244Z,95792.44
2023-05-13T02:10:34.792Z,95802.97
2023-05-13T02:13:01.282Z,95767.38
2023-05-13T02:15:27.859Z,95773.66
2023-05-13T02:17:54.417Z,95801.69
2023-05-13T02:20:21.234Z,95804.88
2023-05-13T02:22:47.884Z,95806.69
2023-05-13T02:25:14.335Z,95797.00
2023-05-13T02:27:40.828Z,95798.25
2023-05-13T02:30:07.885Z,95800.16
2023-05-13T02:32:34.417Z,95794.34
2023-05-13T02:35:00.910Z,95807.19
2023-05-13T02:37:27.552Z,95812.41
2023-05-13T02:40:00.921Z,95800.78
2023-05-13T02:42:27.712Z,95795.59
2023-05-13T02:44:54.897Z,95801.34
2023-05-13T02:47:22.626Z,95806.38
2023-05-13T02:49:49.650Z,95805.81
2023-05-13T02:52:16.168Z,95803.47
2023-05-13T02:54:42.706Z,95800.94
2023-05-13T02:57:09.313Z,95788.59
2023-05-13T02:59:35.849Z,95807.22
2023-05-13T03:02:02.399Z,95788.91
2023-05-13T03:04:28.955Z,95796.25
2023-05-13T03:06:55.704Z,95806.69
2023-05-13T03:09:22.228Z,95801.09
2023-05-13T03:11:49.045Z,95805.13
2023-05-13T03:14:15.580Z,95799.94
2023-05-13T03:16:42.137Z,95797.03
2023-05-13T03:19:08.778Z,95795.66
2023-05-13T03:21:35.406Z,95809.84
2023-05-13T03:24:02.515Z,95806.25
2023-05-13T03:26:29.732Z,95793.06
2023-05-13T03:28:56.697Z,95809.31
2023-05-13T03:31:23.581Z,95817.97
2023-05-13T03:33:50.228Z,95815.66
2023-05-13T03:36:16.709Z,95819.91
2023-05-13T03:38:43.163Z,95805.19
2023-05-13T03:41:09.811Z,95813.84
2023-05-13T03:43:36.322Z,95807.00
2023-05-13T03:46:07.465Z,95814.59
2023-05-13T03:48:34.237Z,95808.63
2023-05-13T03:51:02.242Z,95809.22
2023-05-13T03:53:29.352Z,95826.25
2023-05-13T03:55:55.839Z,95825.19
2023-05-13T03:58:22.784Z,95816.53
2023-05-13T04:00:49.533Z,95831.00
2023-05-13T04:03:17.529Z,95819.47
2023-05-13T04:05:46.141Z,95826.06
2023-05-13T04:08:12.906Z,95835.72
2023-05-13T04:10:39.837Z,95840.75
2023-05-13T04:13:07.046Z,95808.44
2023-05-13T04:15:33.680Z,95832.13
2023-05-13T04:18:00.441Z,95836.59
2023-05-13T04:20:29.030Z,95825.28
2023-05-13T04:22:55.542Z,95845.44
2023-05-13T04:25:22.094Z,95832.84
2023-05-13T04:27:48.637Z,95849.47
2023-05-13T04:30:23.081Z,95825.56
2023-05-13T04:32:49.795Z,95842.16
2023-05-13T04:35:16.641Z,95843.72
2023-05-13T04:37:46.097Z,95854.78
2023-05-13T04:40:15.434Z,95850.38
2023-05-13T04:42:42.306Z,95860.03
2023-05-13T04:45:09.507Z,95860.03
2023-05-13T04:47:38.050Z,95864.78
2023-05-13T04:50:05.662Z,95867.94
2023-05-13T04:52:32.887Z,95866.66
2023-05-13T04:54:59.565Z,95865.88
2023-05-13T04:57:27.112Z,95873.75
2023-05-13T04:59:53.556Z,95870.88
2023-05-13T05:02:20.043Z,95875.88
2023-05-13T05:04:49.269Z,95875.63
2023-05-13T05:07:15.955Z,95878.81
2023-05-13T05:09:42.503Z,95870.09
2023-05-13T05:12:09.666Z,95870.91
2023-05-13T05:14:39.536Z,95873.56
2023-05-13T05:17:07.142Z,95876.16
2023-05-13T05:19:34.238Z,95873.56
2023-05-13T05:22:00.838Z,95877.25
2023-05-13T05:24:27.364Z,95876.94
2023-05-13T05:26:53.806Z,95889.00
2023-05-13T05:29:20.990Z,95882.97
2023-05-13T05:31:47.664Z,95887.72
2023-05-13T05:34:14.624Z,95893.47
2023-05-13T05:36:42.955Z,95896.34
2023-05-13T05:39:10.970Z,95870.38
2023-05-13T05:41:37.516Z,95897.66
2023-05-13T05:44:04.261Z,95878.56
2023-05-13T05:46:32.116Z,95901.09
2023-05-13T05:48:59.555Z,95898.97
2023-05-13T05:51:26.077Z,95895.28
2023-05-13T05:53:52.631Z,95894.25
2023-05-13T05:56:19.750Z,95895.03
2023-05-13T05:58:46.259Z,95894.81
2023-05-13T06:01:12.791Z,95900.03
2023-05-13T06:03:39.368Z,95897.66
2023-05-13T06:06:06.020Z,95901.88
2023-05-13T06:08:33.454Z,95911.03
2023-05-13T06:11:01.160Z,95896.59
2023-05-13T06:13:27.879Z,95905.56
2023-05-13T06:15:54.967Z,95886.38
2023-05-13T06:18:21.580Z,95909.91
2023-05-13T06:20:48.091Z,95905.47
2023-05-13T06:23:14.966Z,95897.59
2023-05-13T06:25:41.881Z,95905.75
2023-05-13T06:28:10.575Z,95902.38
2023-05-13T06:30:38.021Z,95902.41
2023-05-13T06:33:04.917Z,95899.50
2023-05-13T06:35:31.622Z,95901.56
2023-05-13T06:37:59.846Z,95911.50
2023-05-13T06:40:26.993Z,95909.16
2023-05-13T06:42:54.555Z,95911.50
2023-05-13T06:45:28.060Z,95908.91
2023-05-13T06:47:54.791Z,95901.56
2023-05-13T06:50:21.604Z,95912.56
2023-05-13T06:52:48.338Z,95915.44
2023-05-13T06:55:16.575Z,95915.19
2023-05-13T06:57:46.646Z,95904.44
2023-05-13T07:00:17.708Z,95911.00
2023-05-13T07:02:44.161Z,95923.84
2023-05-13T07:05:11.723Z,95893.66
2023-05-13T07:07:38.376Z,95926.47
2023-05-13T07:10:05.307Z,95920.72
2023-05-13T07:12:32.629Z,95917.88
2023-05-13T07:14:59.182Z,95919.44
2023-05-13T07:17:25.717Z,95899.44
2023-05-13T07:19:52.358Z,95908.91
2023-05-13T07:22:19.010Z,95929.56
2023-05-13T07:24:45.518Z,95919.31
2023-05-13T07:27:11.968Z,95920.69
2023-05-13T07:29:38.622Z,95925.38
2023-05-13T07:32:06.210Z,95932.66
2023-05-13T07:34:32.726Z,95935.00
2023-05-13T07:36:59.405Z,95928.50
2023-05-13T07:39:26.681Z,95917.75
2023-05-13T07:41:53.654Z,95933.97
2023-05-13T07:44:20.196Z,95933.75
2023-05-13T07:46:48.464Z,95937.72
2023-05-13T07:49:15.002Z,95927.97
2023-05-13T07:51:41.954Z,95914.13
2023-05-13T07:54:09.249Z,95949.31
2023-05-13T07:56:35.889Z,95944.88
2023-05-13T07:59:02.355Z,95941.94
2023-05-13T08:01:29.067Z,95939.59
2023-05-13T08:03:56.296Z,95949.88
2023-05-13T08:06:23.150Z,95925.72
2023-05-13T08:08:49.590Z,95952.72
2023-05-13T08:11:16.060Z,95945.66
2023-05-13T08:13:42.513Z,95930.69
2023-05-13T08:16:09.092Z,95930.31
2023-05-13T08:18:35.609Z,95911.94
2023-05-13T08:21:02.084Z,95952.88
2023-05-13T08:23:43.350Z,95925.91
2023-05-13T08:26:11.864Z,95955.56
2023-05-13T08:28:38.693Z,95945.31
2023-05-13T08:31:05.252Z,95952.13
2023-05-13T08:33:32.430Z,95958.91
2023-05-13T08:36:00.814Z,95958.69
2023-05-13T08:38:27.297Z,95956.78
2023-05-13T08:40:53.936Z,95959.66
2023-05-13T08:43:23.575Z,95953.94
2023-05-13T08:45:53.359Z,95956.97
2023-05-13T08:48:20.552Z,95959.78
2023-05-13T08:50:47.326Z,95945.31
2023-05-13T08:53:16.447Z,95938.78
2023-05-13T08:55:42.872Z,95956.00
2023-05-13T08:58:09.356Z,95952.63
2023-05-13T09:00:36.144Z,95944.25
2023-05-13T09:03:02.932Z,95935.22
2023-05-13T09:05:29.590Z,95957.56
2023-05-13T09:07:57.208Z,95948.56
2023-05-13T09:10:23.927Z,95954.38
2023-05-13T09:12:55.070Z,95951.56
2023-05-13T09:15:24.330Z,95960.28
2023-05-13T09:17:55.013Z,95962.22
2023-05-13T09:20:22.608Z,95969.09
2023-05-13T09:22:57.396Z,95974.63
2023-05-13T09:25:25.271Z,95974.56
2023-05-13T09:28:00.243Z,95966.78
2023-05-13T09:30:33.000Z,95961.88
2023-05-13T09:33:17.374Z,95970.09
2023-05-13T09:35:44.826Z,95967.16
2023-05-13T09:38:24.680Z,95976.13
2023-05-13T09:40:52.173Z,95968.50
2023-05-13T09:43:23.354Z,95968.72
2023-05-13T09:45:57.961Z,95969.75
2023-05-13T09:48:28.393Z,95971.66
2023-05-13T09:50:57.724Z,95972.94
2023-05-13T09:53:25.481Z,95955.91
2023-05-13T09:55:53.666Z,95953.38
2023-05-13T09:58:20.758Z,95961.97
2023-05-13T10:00:48.114Z,95973.06
2023-05-13T10:03:15.188Z,95971.41
2023-05-13T10:05:42.680Z,95958.31
2023-05-13T10:08:11.871Z,95970.69
2023-05-13T10:10:39.028Z,95969.38
2023-05-13T10:13:08.750Z,95976.53
2023-05-13T10:15:35.464Z,95971.25
2023-05-13T10:18:02.517Z,95976.19
2023-05-13T10:20:29.607Z,95972.53
2023-05-13T10:22:57.136Z,95981.47
2023-05-13T10:25:24.188Z,95952.53
2023-05-13T10:27:51.180Z,95964.50
2023-05-13T10:30:17.861Z,95975.25
2023-05-13T10:32:44.536Z,95960.31
2023-05-13T10:35:16.730Z,95957.63
2023-05-13T10:38:28.159Z,95971.84
2023-05-13T10:41:10.170Z,95972.91
2023-05-13T10:43:37.396Z,95957.31
2023-05-13T10:46:11.424Z,95968.53
2023-05-13T10:48:49.679Z,95977.66
2023-05-13T10:51:18.416Z,95971.84
2023-05-13T10:53:52.021Z,95970.84
2023-05-13T10:56:24.256Z,95966.41
2023-05-13T10:58:59.304Z,95978.41
2023-05-13T11:01:43.035Z,95974.94
2023-05-13T11:04:15.062Z,95986.00
2023-05-13T11:06:44.411Z,95980.28
2023-05-13T11:09:28.984Z,95979.56
2023-05-13T11:12:00.286Z,95959.50
2023-05-13T11:14:27.916Z,95984.94
2023-05-13T11:17:00.552Z,95984.72
2023-05-13T11:19:28.297Z,95986.28
2023-05-13T11:21:57.364Z,95994.19
2023-05-13T11:24:24.823Z,95989.31
2023-05-13T11:26:57.389Z,95990.38
2023-05-13T11:29:34.995Z,95995.56
2023-05-13T11:32:04.318Z,95953.81
2023-05-13T11:34:32.508Z,95970.78
2023-05-13T11:37:05.210Z,95987.59
2023-05-13T11:39:32.927Z,95995.78
2023-05-13T11:42:01.837Z,95998.06
2023-05-13T11:44:28.700Z,96002.47
2023-05-13T11:47:05.733Z,96000.28
2023-05-13T11:49:36.877Z,95989.31
2023-05-13T11:52:09.315Z,95995.13
2023-05-13T11:54:49.334Z,95991.19
2023-05-13T11:57:28.758Z,95994.34
2023-05-13T12:00:01.263Z,95994.00
2023-05-13T12:02:37.609Z,95974.53
2023-05-13T12:05:06.338Z,95965.28
2023-05-13T12:07:34.926Z,95992.16
2023-05-13T12:10:03.787Z,95999.41
2023-05-13T12:12:32.770Z,95986.06
2023-05-13T12:15:01.369Z,96002.31
2023-05-13T12:17:28.209Z,96005.69
2023-05-13T12:20:11.278Z,96012.03
2023-05-13T12:22:50.782Z,96002.75
2023-05-13T12:25:39.875Z,96004.75
2023-05-13T12:28:25.618Z,95997.13
2023-05-13T12:30:52.063Z,96004.69
2023-05-13T12:33:23.677Z,95994.16
2023-05-13T12:35:52.817Z,96001.81
2023-05-13T12:38:21.243Z,95996.91
2023-05-13T12:40:48.931Z,96001.59
2023-05-13T12:43:19.666Z,95999.31
2023-05-13T12:45:47.942Z,96000.13
2023-05-13T12:48:16.552Z,95987.53
2023-05-13T12:50:43.092Z,95990.31
2023-05-13T12:53:09.563Z,95980.81
2023-05-13T12:55:39.845Z,95983.19
2023-05-13T12:58:13.077Z,95985.09
2023-05-13T13:00:39.818Z,95991.09
2023-05-13T13:03:07.483Z,95989.19
2023-05-13T13:05:34.488Z,95998.09
2023-05-13T13:08:05.549Z,95994.66
2023-05-13T13:10:32.506Z,95990.75
2023-05-13T13:12:59.003Z,95981.31
2023-05-13T13:15:25.779Z,95981.09
2023-05-13T13:17:55.371Z,95989.19
2023-05-13T13:20:22.400Z,96004.81
2023-05-13T13:22:48.913Z,95999.44
2023-05-13T13:25:15.533Z,95983.16
2023-05-13T13:27:42.054Z,95986.19
2023-05-13T13:30:08.843Z,96001.59
2023-05-13T13:32:36.001Z,95993.00
2023-05-13T13:35:05.398Z,95992.34
2023-05-13T13:37:31.933Z,95993.44
2023-05-13T13:39:58.519Z,95982.81
2023-05-13T13:42:28.680Z,95990.63
2023-05-13T13:45:00.225Z,95977.78
2023-05-13T13:47:26.780Z,95972.19
2023-05-13T13:49:53.237Z,95944.91
2023-05-13T13:52:19.769Z,95956.97
2023-05-13T13:54:47.310Z,95966.72
2023-05-13T13:57:14.892Z,95965.09
2023-05-13T13:59:42.054Z,95976.38
2023-05-13T14:02:09.412Z,95950.78
2023-05-13T14:04:37.191Z,95973.34
2023-05-13T14:07:04.235Z,95965.78
2023-05-13T14:09:32.685Z,95949.41
2023-05-13T14:11:59.260Z,95965.00
2023-05-13T14:14:25.956Z,95961.97
2023-05-13T14:16:55.259Z,95960.50
2023-05-13T14:19:21.783Z,95947.53
2023-05-13T14:21:48.313Z,95961.69
2023-05-13T14:24:14.769Z,95959.81
2023-05-13T14:26:41.363Z,95948.53
2023-05-13T14:29:07.901Z,95936.88
2023-05-13T14:31:34.488Z,95938.94
2023-05-13T14:34:00.990Z,95950.31
2023-05-13T14:36:27.568Z,95961.31
2023-05-13T14:38:54.406Z,95961.00
2023-05-13T14:41:21.633Z,95943.16
2023-05-13T14:43:48.957Z,95953.22
2023-05-13T14:46:15.556Z,95963.94
2023-05-13T14:48:42.040Z,95941.50
2023-05-13T14:51:08.682Z,95950.13
2023-05-13T14:53:35.329Z,95958.47
2023-05-13T14:56:01.816Z,95952.66
2023-05-13T14:58:28.504Z,95950.91
2023-05-13T15:00:55.136Z,95934.84
2023-05-13T15:03:21.838Z,95950.50
2023-05-13T15:05:48.564Z,95901.66
2023-05-13T15:08:15.642Z,95941.81
2023-05-13T15:10:42.171Z,95937.00
2023-05-13T15:13:08.927Z,95938.19
2023-05-13T15:15:35.576Z,95928.94
2023-05-13T15:18:02.227Z,95892.25
2023-05-13T15:20:28.811Z,95955.25
2023-05-13T15:22:57.705Z,95939.91
2023-05-13T15:25:24.280Z,95939.16
2023-05-13T15:27:51.364Z,95933.97
2023-05-13T15:30:18.018Z,95885.19
2023-05-13T15:32:44.570Z,95930.41
2023-05-13T15:35:11.107Z,95931.91
2023-05-13T15:37:37.623Z,95925.63
2023-05-13T15:40:04.757Z,95925.53
2023-05-13T15:42:31.259Z,95938.75
2023-05-13T15:44:57.739Z,95927.50
2023-05-13T15:47:24.419Z,95935.44
2023-05-13T15:49:53.415Z,95937.97
2023-05-13T15:52:20.448Z,95924.94
2023-05-13T15:54:46.928Z,95909.53
2023-05-13T15:57:14.777Z,95883.25
2023-05-13T15:59:41.239Z,95921.69
2023-05-13T16:02:08.360Z,95915.53
2023-05-13T16:04:35.080Z,95918.47
2023-05-13T16:07:01.802Z,95910.50
2023-05-13T16:09:28.274Z,95921.78
2023-05-13T16:11:55.363Z,95922.47
2023-05-13T16:14:21.840Z,95917.56
2023-05-13T16:16:48.484Z,95912.06
2023-05-13T16:19:15.106Z,95925.25
2023-05-13T16:21:42.391Z,95908.47
2023-05-13T16:24:08.981Z,95907.09
2023-05-13T16:26:35.501Z,95886.50
2023-05-13T16:29:02.082Z,95918.53
2023-05-13T16:31:29.684Z,95904.03
2023-05-13T16:33:56.509Z,95894.03
2023-05-13T16:36:23.286Z,95900.09
2023-05-13T16:38:49.993Z,95905.09
2023-05-13T16:41:16.627Z,95902.66
2023-05-13T16:43:43.182Z,95880.28
2023-05-13T16:46:09.725Z,95903.63
2023-05-13T16:48:36.743Z,95916.06
2023-05-13T16:51:03.750Z,95892.22
2023-05-13T16:53:30.891Z,95862.44
2023-05-13T16:55:57.495Z,95901.94
2023-05-13T16:58:24.067Z,95904.88
2023-05-13T17:00:50.914Z,95877.72
2023-05-13T17:03:17.941Z,95889.50
2023-05-13T17:05:44.726Z,95887.72
2023-05-13T17:08:11.254Z,95839.41
2023-05-13T17:10:38.135Z,95892.81
2023-05-13T17:13:05.700Z,95884.69
2023-05-13T17:15:32.172Z,95879.69
2023-05-13T17:17:58.651Z,95874.13
2023-05-13T17:20:25.489Z,95889.50
2023-05-13T17:22:52.059Z,95884.59
2023-05-13T17:25:18.589Z,95880.69
2023-05-13T17:27:45.030Z,95887.06
2023-05-13T17:30:11.993Z,95881.09
2023-05-13T17:32:38.627Z,95899.13
2023-05-13T17:35:05.677Z,95873.56
2023-05-13T17:37:32.359Z,95891.09
2023-05-13T17:40:00.853Z,95847.00
2023-05-13T17:42:28.932Z,95884.44
2023-05-13T17:44:55.514Z,95891.00
2023-05-13T17:47:22.124Z,95893.34
2023-05-13T17:49:48.554Z,95901.28
2023-05-13T17:52:15.040Z,95886.59
2023-05-13T17:54:41.534Z,95894.81
2023-05-13T17:57:09.936Z,95883.06
2023-05-13T18:00:04.737Z,95904.72
2023-05-13T18:02:31.543Z,95888.56
2023-05-13T18:05:02.536Z,95897.78
2023-05-13T18:07:29.041Z,95888.94
2023-05-13T18:09:56.018Z,95870.13
2023-05-13T18:12:22.489Z,95892.47
2023-05-13T18:14:48.996Z,95892.78
2023-05-13T18:17:15.553Z,95906.19
2023-05-13T18:19:42.008Z,95914.06
2023-05-13T18:22:09.516Z,95910.41
2023-05-13T18:24:36.050Z,95901.88
2023-05-13T18:31:38.115Z,95904.53
2023-05-13T18:34:04.661Z,95896.22
2023-05-13T18:36:32.666Z,95904.66
2023-05-13T18:38:59.267Z,95894.25
2023-05-13T18:41:25.824Z,95909.44
2023-05-13T18:43:52.280Z,95892.66
2023-05-13T18:46:19.647Z,95900.03
2023-05-13T18:48:46.387Z,95905.09
2023-05-13T18:51:12.920Z,95928.25
2023-05-13T18:53:39.402Z,95899.72
2023-05-13T18:56:05.929Z,95912.06
2023-05-13T18:58:32.470Z,95915.19
2023-05-13T19:00:58.956Z,95893.50
2023-05-13T19:03:26.844Z,95907.97
2023-05-13T19:05:53.533Z,95890.09
2023-05-13T19:08:20.055Z,95900.88
2023-05-13T19:10:46.499Z,95925.50
2023-05-13T19:13:14.568Z,95910.88
2023-05-13T19:15:41.024Z,95909.91
2023-05-13T19:18:07.525Z,95914.50
2023-05-13T19:20:34.033Z,95928.16
2023-05-13T19:23:00.705Z,95913.75
2023-05-13T19:25:27.192Z,95931.88
2023-05-13T19:27:53.717Z,95925.09
2023-05-13T19:30:20.685Z,95905.16
2023-05-13T19:32:47.319Z,95930.00
2023-05-13T19:35:14.089Z,95937.25
2023-05-13T19:37:40.687Z,95946.75
2023-05-13T19:40:07.682Z,95936.25
2023-05-13T19:42:34.157Z,95941.28
2023-05-13T19:45:00.613Z,95939.59
2023-05-13T19:47:27.209Z,95940.19
2023-05-13T19:49:53.847Z,95915.94
2023-05-13T19:52:20.786Z,95945.78
2023-05-13T19:54:47.279Z,95934.28
2023-05-13T19:57:13.801Z,95943.41
2023-05-13T19:59:41.676Z,95945.28
2023-05-13T20:02:08.774Z,95940.25
2023-05-13T20:04:35.420Z,95946.94
2023-05-13T20:07:04.504Z,95915.16
2023-05-13T20:09:31.208Z,95925.03
2023-05-13T20:11:58.051Z,95938.16
2023-05-13T20:14:27.827Z,95936.59
2023-05-13T20:16:54.599Z,95905.88
2023-05-13T20:19:21.210Z,95935.00
2023-05-13T20:21:47.812Z,95943.59
2023-05-13T20:24:14.252Z,95928.41
2023-05-13T20:26:41.815Z,95916.63
2023-05-13T20:29:08.439Z,95946.06
2023-05-13T20:31:42.267Z,95943.00
2023-05-13T20:34:11.754Z,95939.56
2023-05-13T20:36:38.724Z,95936.81
2023-05-13T20:39:05.335Z,95933.22
2023-05-13T20:41:32.739Z,95940.00
2023-05-13T20:44:03.191Z,95929.50
2023-05-13T20:46:29.724Z,95911.97
2023-05-13T20:48:56.272Z,95941.16
2023-05-13T20:51:23.002Z,95912.28
2023-05-13T20:53:49.523Z,95919.63
2023-05-13T20:56:16.066Z,95925.03
2023-05-13T20:58:42.658Z,95916.22
2023-05-13T21:01:09.224Z,95918.28
2023-05-13T21:03:35.832Z,95924.16
2023-05-13T21:06:02.479Z,95916.59
2023-05-13T21:08:29.000Z,95897.94
2023-05-13T21:10:56.918Z,95911.56
2023-05-13T21:13:23.457Z,95899.94
2023-05-13T21:15:53.131Z,95928.84
2023-05-13T21:18:19.607Z,95920.78
2023-05-13T21:20:46.581Z,95898.06
2023-05-13T21:23:13.081Z,95897.22
2023-05-13T21:25:59.893Z,95914.22
2023-05-13T21:28:26.392Z,95873.25
2023-05-13T21:30:52.863Z,95904.72
2023-05-13T21:33:19.320Z,95901.28
2023-05-13T21:35:45.773Z,95886.13
2023-05-13T21:38:12.773Z,95902.56
2023-05-13T21:40:39.824Z,95901.28
2023-05-13T21:43:06.264Z,95892.59
2023-05-13T21:45:32.696Z,95889.94
2023-05-13T21:47:59.190Z,95896.94
2023-05-13T21:50:25.809Z,95889.59
2023-05-13T21:52:52.307Z,95900.56
2023-05-13T21:55:18.788Z,95894.28
2023-05-13T21:57:45.256Z,95898.81
2023-05-13T22:00:15.149Z,95884.88
2023-05-13T22:02:50.795Z,95905.13
2023-05-13T22:05:17.553Z,95882.78
2023-05-13T22:07:44.039Z,95890.16
2023-05-13T22:10:11.516Z,95892.28
2023-05-13T22:12:37.984Z,95888.50
2023-05-13T22:15:04.879Z,95880.00
2023-05-13T22:17:31.488Z,95878.75
2023-05-13T22:19:58.045Z,95884.22
2023-05-13T22:22:24.588Z,95862.38
2023-05-13T22:24:51.617Z,95876.50
2023-05-13T22:27:18.101Z,95881.88
2023-05-13T22:29:44.606Z,95890.16
2023-05-13T22:32:11.212Z,95873.47
2023-05-13T22:34:37.740Z,95859.22
2023-05-13T22:37:04.394Z,95881.72
2023-05-13T22:39:31.089Z,95859.19
2023-05-13T22:41:57.591Z,95882.06
2023-05-13T22:44:24.122Z,95887.88
2023-05-13T22:46:52.559Z,95898.09
2023-05-13T22:49:19.276Z,95893.44
2023-05-13T22:51:47.734Z,95889.72
2023-05-13T22:54:14.231Z,95846.81
2023-05-13T22:56:40.701Z,95886.59
2023-05-13T22:59:07.220Z,95888.66
2023-05-13T23:01:33.863Z,95860.88
2023-05-13T23:04:00.565Z,95848.53
2023-05-13T23:06:27.111Z,95876.03
2023-05-13T23:08:53.562Z,95866.75
2023-05-13T23:11:20.099Z,95886.09
2023-05-13T23:13:46.576Z,95870.25
2023-05-13T23:16:13.173Z,95838.53
2023-05-13T23:18:39.961Z,95873.16
2023-05-13T23:21:08.966Z,95838.81
2023-05-13T23:23:35.806Z,95855.47
2023-05-13T23:26:04.181Z,95868.09
2023-05-13T23:28:31.699Z,95868.09
2023-05-13T23:30:58.231Z,95858.75
2023-05-13T23:33:24.656Z,95854.41
2023-05-13T23:35:56.195Z,95854.75
2023-05-13T23:38:23.270Z,95862.69
2023-05-13T23:40:49.969Z,95852.50
2023-05-13T23:43:16.519Z,95845.16
2023-05-13T23:45:43.129Z,95852.16
2023-05-13T23:48:09.675Z,95826.69
2023-05-13T23:50:36.162Z,95850.44
2023-05-13T23:53:02.728Z,95845.44
2023-05-13T23:55:29.187Z,95852.03
2023-05-13T23:57:55.878Z,95839.41
